sensor_id;sensor_type;location;lat;lon;timestamp;P1;durP1;ratioP1;P2;durP2;ratioP2
64986;SDS011;67903;52.108;9.358;2023-06-10T00:00:34;6.40;;;3.90;;
64986;SDS011;67903;52.108;9.358;2023-06-10T00:03:20;5.60;;;4.03;;
64986;SDS011;67903;52.108;9.358;2023-06-10T00:06:09;6.68;;;3.80;;
64986;SDS011;67903;52.108;9.358;2023-06-10T00:08:55;4.22;;;3.72;;
64986;SDS011;67903;52.108;9.358;2023-06-10T00:11:41;4.85;;;3.33;;
64986;SDS011;67903;52.108;9.358;2023-06-10T00:14:27;6.55;;;4.20;;
64986;SDS011;67903;52.108;9.358;2023-06-10T00:17:13;5.07;;;4.00;;
64986;SDS011;67903;52.108;9.358;2023-06-10T00:20:00;6.13;;;3.58;;
64986;SDS011;67903;52.108;9.358;2023-06-10T00:22:49;4.82;;;3.60;;
64986;SDS011;67903;52.108;9.358;2023-06-10T00:25:36;5.38;;;3.65;;
64986;SDS011;67903;52.108;9.358;2023-06-10T00:28:22;4.45;;;3.78;;
64986;SDS011;67903;52.108;9.358;2023-06-10T00:31:07;5.38;;;3.95;;
64986;SDS011;67903;52.108;9.358;2023-06-10T00:33:53;8.10;;;3.90;;
64986;SDS011;67903;52.108;9.358;2023-06-10T00:36:39;6.72;;;4.13;;
64986;SDS011;67903;52.108;9.358;2023-06-10T00:39:25;4.18;;;3.53;;
64986;SDS011;67903;52.108;9.358;2023-06-10T00:42:11;5.50;;;3.65;;
64986;SDS011;67903;52.108;9.358;2023-06-10T00:44:57;6.18;;;3.72;;
64986;SDS011;67903;52.108;9.358;2023-06-10T00:47:42;4.53;;;4.00;;
64986;SDS011;67903;52.108;9.358;2023-06-10T00:50:28;4.55;;;3.50;;
64986;SDS011;67903;52.108;9.358;2023-06-10T00:53:16;4.45;;;3.60;;
64986;SDS011;67903;52.108;9.358;2023-06-10T00:56:02;8.07;;;3.55;;
64986;SDS011;67903;52.108;9.358;2023-06-10T00:58:49;4.65;;;4.00;;
64986;SDS011;67903;52.108;9.358;2023-06-10T01:01:36;6.75;;;3.97;;
64986;SDS011;67903;52.108;9.358;2023-06-10T01:04:23;5.38;;;3.92;;
64986;SDS011;67903;52.108;9.358;2023-06-10T01:07:22;6.80;;;3.95;;
64986;SDS011;67903;52.108;9.358;2023-06-10T01:10:20;7.68;;;3.90;;
64986;SDS011;67903;52.108;9.358;2023-06-10T01:13:09;7.07;;;3.70;;
64986;SDS011;67903;52.108;9.358;2023-06-10T01:15:57;5.00;;;3.70;;
64986;SDS011;67903;52.108;9.358;2023-06-10T01:18:43;5.15;;;3.67;;
64986;SDS011;67903;52.108;9.358;2023-06-10T01:21:29;5.57;;;3.90;;
64986;SDS011;67903;52.108;9.358;2023-06-10T01:24:19;6.70;;;3.83;;
64986;SDS011;67903;52.108;9.358;2023-06-10T01:27:05;5.82;;;3.50;;
64986;SDS011;67903;52.108;9.358;2023-06-10T01:29:58;3.83;;;3.40;;
64986;SDS011;67903;52.108;9.358;2023-06-10T01:32:50;5.20;;;3.72;;
64986;SDS011;67903;52.108;9.358;2023-06-10T01:35:36;5.40;;;3.72;;
64986;SDS011;67903;52.108;9.358;2023-06-10T01:38:26;6.22;;;3.80;;
64986;SDS011;67903;52.108;9.358;2023-06-10T01:41:13;5.90;;;3.70;;
64986;SDS011;67903;52.108;9.358;2023-06-10T01:43:59;6.45;;;3.85;;
64986;SDS011;67903;52.108;9.358;2023-06-10T01:46:46;7.13;;;3.92;;
64986;SDS011;67903;52.108;9.358;2023-06-10T01:49:31;4.97;;;3.80;;
64986;SDS011;67903;52.108;9.358;2023-06-10T01:52:17;5.93;;;3.60;;
64986;SDS011;67903;52.108;9.358;2023-06-10T01:55:04;8.35;;;3.65;;
64986;SDS011;67903;52.108;9.358;2023-06-10T01:57:50;5.65;;;4.10;;
64986;SDS011;67903;52.108;9.358;2023-06-10T02:00:36;9.20;;;3.90;;
64986;SDS011;67903;52.108;9.358;2023-06-10T02:03:22;5.35;;;4.05;;
64986;SDS011;67903;52.108;9.358;2023-06-10T02:06:08;6.95;;;4.03;;
64986;SDS011;67903;52.108;9.358;2023-06-10T02:08:54;5.28;;;3.88;;
64986;SDS011;67903;52.108;9.358;2023-06-10T02:11:40;4.72;;;3.47;;
64986;SDS011;67903;52.108;9.358;2023-06-10T02:14:26;4.10;;;3.53;;
64986;SDS011;67903;52.108;9.358;2023-06-10T02:17:12;6.47;;;4.03;;
64986;SDS011;67903;52.108;9.358;2023-06-10T02:20:00;5.68;;;3.60;;
64986;SDS011;67903;52.108;9.358;2023-06-10T02:22:51;4.60;;;3.95;;
64986;SDS011;67903;52.108;9.358;2023-06-10T02:25:37;5.35;;;4.10;;
64986;SDS011;67903;52.108;9.358;2023-06-10T02:28:23;4.55;;;3.38;;
64986;SDS011;67903;52.108;9.358;2023-06-10T02:31:08;6.88;;;3.63;;
64986;SDS011;67903;52.108;9.358;2023-06-10T02:33:55;5.65;;;3.72;;
64986;SDS011;67903;52.108;9.358;2023-06-10T02:36:42;4.72;;;3.70;;
64986;SDS011;67903;52.108;9.358;2023-06-10T02:39:28;5.82;;;4.07;;
64986;SDS011;67903;52.108;9.358;2023-06-10T02:42:14;10.93;;;4.35;;
64986;SDS011;67903;52.108;9.358;2023-06-10T02:45:00;7.22;;;4.03;;
64986;SDS011;67903;52.108;9.358;2023-06-10T02:47:53;5.38;;;3.80;;
64986;SDS011;67903;52.108;9.358;2023-06-10T02:50:39;5.55;;;4.18;;
64986;SDS011;67903;52.108;9.358;2023-06-10T02:53:34;5.45;;;3.85;;
64986;SDS011;67903;52.108;9.358;2023-06-10T02:56:25;7.45;;;4.00;;
64986;SDS011;67903;52.108;9.358;2023-06-10T02:59:14;6.93;;;4.07;;
64986;SDS011;67903;52.108;9.358;2023-06-10T03:02:00;7.07;;;4.00;;
64986;SDS011;67903;52.108;9.358;2023-06-10T03:04:50;7.13;;;4.10;;
64986;SDS011;67903;52.108;9.358;2023-06-10T03:07:37;5.78;;;4.00;;
64986;SDS011;67903;52.108;9.358;2023-06-10T03:10:23;6.32;;;4.22;;
64986;SDS011;67903;52.108;9.358;2023-06-10T03:13:09;6.57;;;4.22;;
64986;SDS011;67903;52.108;9.358;2023-06-10T03:15:56;5.13;;;3.88;;
64986;SDS011;67903;52.108;9.358;2023-06-10T03:18:44;8.07;;;4.45;;
64986;SDS011;67903;52.108;9.358;2023-06-10T03:21:30;5.50;;;4.22;;
64986;SDS011;67903;52.108;9.358;2023-06-10T03:24:17;5.55;;;4.15;;
64986;SDS011;67903;52.108;9.358;2023-06-10T03:27:03;6.72;;;3.92;;
64986;SDS011;67903;52.108;9.358;2023-06-10T03:29:49;8.35;;;4.57;;
64986;SDS011;67903;52.108;9.358;2023-06-10T03:32:36;4.50;;;3.92;;
64986;SDS011;67903;52.108;9.358;2023-06-10T03:35:24;4.80;;;3.90;;
64986;SDS011;67903;52.108;9.358;2023-06-10T03:38:10;13.27;;;11.13;;
64986;SDS011;67903;52.108;9.358;2023-06-10T03:40:57;6.40;;;4.68;;
64986;SDS011;67903;52.108;9.358;2023-06-10T03:43:44;6.65;;;4.68;;
64986;SDS011;67903;52.108;9.358;2023-06-10T03:46:31;5.00;;;4.25;;
64986;SDS011;67903;52.108;9.358;2023-06-10T03:49:17;7.07;;;4.72;;
64986;SDS011;67903;52.108;9.358;2023-06-10T03:52:04;6.68;;;4.05;;
64986;SDS011;67903;52.108;9.358;2023-06-10T03:54:50;6.22;;;4.35;;
64986;SDS011;67903;52.108;9.358;2023-06-10T03:57:36;5.07;;;4.30;;
64986;SDS011;67903;52.108;9.358;2023-06-10T04:00:21;6.15;;;4.20;;
64986;SDS011;67903;52.108;9.358;2023-06-10T04:03:08;8.57;;;4.72;;
64986;SDS011;67903;52.108;9.358;2023-06-10T04:05:59;6.53;;;4.65;;
64986;SDS011;67903;52.108;9.358;2023-06-10T04:08:45;6.93;;;4.40;;
64986;SDS011;67903;52.108;9.358;2023-06-10T04:11:31;7.95;;;4.93;;
64986;SDS011;67903;52.108;9.358;2023-06-10T04:14:17;5.45;;;4.22;;
64986;SDS011;67903;52.108;9.358;2023-06-10T04:17:05;6.93;;;4.75;;
64986;SDS011;67903;52.108;9.358;2023-06-10T04:19:55;7.55;;;4.20;;
64986;SDS011;67903;52.108;9.358;2023-06-10T04:22:41;7.75;;;4.60;;
64986;SDS011;67903;52.108;9.358;2023-06-10T04:25:28;6.68;;;4.88;;
64986;SDS011;67903;52.108;9.358;2023-06-10T04:28:14;5.63;;;4.43;;
64986;SDS011;67903;52.108;9.358;2023-06-10T04:31:01;6.75;;;4.68;;
64986;SDS011;67903;52.108;9.358;2023-06-10T04:33:49;6.90;;;4.45;;
64986;SDS011;67903;52.108;9.358;2023-06-10T04:36:35;7.30;;;5.22;;
64986;SDS011;67903;52.108;9.358;2023-06-10T04:39:22;7.75;;;5.03;;
64986;SDS011;67903;52.108;9.358;2023-06-10T04:42:08;8.95;;;5.45;;
64986;SDS011;67903;52.108;9.358;2023-06-10T04:44:56;6.90;;;4.95;;
64986;SDS011;67903;52.108;9.358;2023-06-10T04:47:43;6.50;;;4.93;;
64986;SDS011;67903;52.108;9.358;2023-06-10T04:50:29;10.02;;;5.13;;
64986;SDS011;67903;52.108;9.358;2023-06-10T04:53:15;7.32;;;5.38;;
64986;SDS011;67903;52.108;9.358;2023-06-10T04:56:03;8.70;;;5.22;;
64986;SDS011;67903;52.108;9.358;2023-06-10T04:58:49;7.32;;;4.70;;
64986;SDS011;67903;52.108;9.358;2023-06-10T05:01:36;8.57;;;5.55;;
64986;SDS011;67903;52.108;9.358;2023-06-10T05:04:21;8.35;;;5.05;;
64986;SDS011;67903;52.108;9.358;2023-06-10T05:07:07;6.68;;;5.40;;
64986;SDS011;67903;52.108;9.358;2023-06-10T05:09:53;7.63;;;5.50;;
64986;SDS011;67903;52.108;9.358;2023-06-10T05:12:40;8.35;;;5.28;;
64986;SDS011;67903;52.108;9.358;2023-06-10T05:15:26;10.20;;;5.50;;
64986;SDS011;67903;52.108;9.358;2023-06-10T05:18:11;8.30;;;5.80;;
64986;SDS011;67903;52.108;9.358;2023-06-10T05:20:58;6.80;;;5.60;;
64986;SDS011;67903;52.108;9.358;2023-06-10T05:23:43;8.82;;;5.70;;
64986;SDS011;67903;52.108;9.358;2023-06-10T05:26:29;8.55;;;5.68;;
64986;SDS011;67903;52.108;9.358;2023-06-10T05:29:17;9.68;;;5.47;;
64986;SDS011;67903;52.108;9.358;2023-06-10T05:32:04;9.20;;;5.10;;
64986;SDS011;67903;52.108;9.358;2023-06-10T05:34:50;7.35;;;5.13;;
64986;SDS011;67903;52.108;9.358;2023-06-10T05:37:36;7.20;;;5.28;;
64986;SDS011;67903;52.108;9.358;2023-06-10T05:40:22;6.65;;;5.40;;
64986;SDS011;67903;52.108;9.358;2023-06-10T05:43:08;11.95;;;6.40;;
64986;SDS011;67903;52.108;9.358;2023-06-10T05:45:54;7.10;;;5.35;;
64986;SDS011;67903;52.108;9.358;2023-06-10T05:48:40;6.15;;;5.55;;
64986;SDS011;67903;52.108;9.358;2023-06-10T05:51:26;8.13;;;5.97;;
64986;SDS011;67903;52.108;9.358;2023-06-10T05:54:13;9.35;;;6.05;;
64986;SDS011;67903;52.108;9.358;2023-06-10T05:56:59;10.90;;;6.13;;
64986;SDS011;67903;52.108;9.358;2023-06-10T05:59:45;7.38;;;5.47;;
64986;SDS011;67903;52.108;9.358;2023-06-10T06:02:31;8.93;;;5.43;;
64986;SDS011;67903;52.108;9.358;2023-06-10T06:05:17;7.70;;;5.57;;
64986;SDS011;67903;52.108;9.358;2023-06-10T06:08:06;6.47;;;5.32;;
64986;SDS011;67903;52.108;9.358;2023-06-10T06:10:52;7.15;;;5.35;;
64986;SDS011;67903;52.108;9.358;2023-06-10T06:13:38;6.90;;;5.18;;
64986;SDS011;67903;52.108;9.358;2023-06-10T06:16:24;7.30;;;5.50;;
64986;SDS011;67903;52.108;9.358;2023-06-10T06:19:10;6.63;;;5.05;;
64986;SDS011;67903;52.108;9.358;2023-06-10T06:21:56;7.28;;;5.55;;
64986;SDS011;67903;52.108;9.358;2023-06-10T06:24:41;6.63;;;4.90;;
64986;SDS011;67903;52.108;9.358;2023-06-10T06:27:28;7.30;;;5.22;;
64986;SDS011;67903;52.108;9.358;2023-06-10T06:30:14;6.70;;;4.93;;
64986;SDS011;67903;52.108;9.358;2023-06-10T06:33:00;7.35;;;5.65;;
64986;SDS011;67903;52.108;9.358;2023-06-10T06:35:46;8.20;;;5.80;;
64986;SDS011;67903;52.108;9.358;2023-06-10T06:38:31;7.85;;;5.35;;
64986;SDS011;67903;52.108;9.358;2023-06-10T06:41:17;7.97;;;5.43;;
64986;SDS011;67903;52.108;9.358;2023-06-10T06:44:04;6.97;;;5.15;;
64986;SDS011;67903;52.108;9.358;2023-06-10T06:46:55;6.55;;;5.22;;
64986;SDS011;67903;52.108;9.358;2023-06-10T06:49:41;7.05;;;5.47;;
64986;SDS011;67903;52.108;9.358;2023-06-10T06:52:27;8.57;;;5.97;;
64986;SDS011;67903;52.108;9.358;2023-06-10T06:55:13;8.43;;;6.13;;
64986;SDS011;67903;52.108;9.358;2023-06-10T06:57:59;8.65;;;5.97;;
64986;SDS011;67903;52.108;9.358;2023-06-10T07:00:48;17.42;;;14.82;;
64986;SDS011;67903;52.108;9.358;2023-06-10T07:03:35;10.63;;;8.30;;
64986;SDS011;67903;52.108;9.358;2023-06-10T07:06:20;8.63;;;6.30;;
64986;SDS011;67903;52.108;9.358;2023-06-10T07:09:09;9.85;;;7.32;;
64986;SDS011;67903;52.108;9.358;2023-06-10T07:11:55;6.53;;;5.78;;
64986;SDS011;67903;52.108;9.358;2023-06-10T07:14:41;8.25;;;7.40;;
64986;SDS011;67903;52.108;9.358;2023-06-10T07:17:27;7.97;;;6.10;;
64986;SDS011;67903;52.108;9.358;2023-06-10T07:20:13;7.55;;;5.35;;
64986;SDS011;67903;52.108;9.358;2023-06-10T07:23:00;7.25;;;5.20;;
64986;SDS011;67903;52.108;9.358;2023-06-10T07:25:45;6.60;;;5.20;;
64986;SDS011;67903;52.108;9.358;2023-06-10T07:28:31;6.57;;;5.88;;
64986;SDS011;67903;52.108;9.358;2023-06-10T07:31:17;8.00;;;5.78;;
64986;SDS011;67903;52.108;9.358;2023-06-10T07:34:03;6.18;;;5.22;;
64986;SDS011;67903;52.108;9.358;2023-06-10T07:36:49;6.80;;;5.50;;
64986;SDS011;67903;52.108;9.358;2023-06-10T07:39:35;6.57;;;5.18;;
64986;SDS011;67903;52.108;9.358;2023-06-10T07:42:21;6.45;;;5.53;;
64986;SDS011;67903;52.108;9.358;2023-06-10T07:45:07;8.30;;;5.53;;
64986;SDS011;67903;52.108;9.358;2023-06-10T07:47:55;11.88;;;6.20;;
64986;SDS011;67903;52.108;9.358;2023-06-10T07:50:44;8.40;;;5.13;;
64986;SDS011;67903;52.108;9.358;2023-06-10T07:53:30;8.85;;;5.93;;
64986;SDS011;67903;52.108;9.358;2023-06-10T07:56:16;7.47;;;5.55;;
64986;SDS011;67903;52.108;9.358;2023-06-10T07:59:02;9.18;;;5.95;;
64986;SDS011;67903;52.108;9.358;2023-06-10T08:01:48;6.38;;;5.45;;
64986;SDS011;67903;52.108;9.358;2023-06-10T08:04:34;8.48;;;5.50;;
64986;SDS011;67903;52.108;9.358;2023-06-10T08:07:20;9.52;;;5.75;;
64986;SDS011;67903;52.108;9.358;2023-06-10T08:10:07;6.80;;;6.00;;
64986;SDS011;67903;52.108;9.358;2023-06-10T08:12:53;6.38;;;5.78;;
64986;SDS011;67903;52.108;9.358;2023-06-10T08:15:39;6.18;;;5.57;;
64986;SDS011;67903;52.108;9.358;2023-06-10T08:18:25;9.25;;;5.75;;
64986;SDS011;67903;52.108;9.358;2023-06-10T08:21:11;6.57;;;5.30;;
64986;SDS011;67903;52.108;9.358;2023-06-10T08:23:57;7.72;;;5.20;;
64986;SDS011;67903;52.108;9.358;2023-06-10T08:26:43;7.03;;;5.53;;
64986;SDS011;67903;52.108;9.358;2023-06-10T08:29:28;8.00;;;5.20;;
64986;SDS011;67903;52.108;9.358;2023-06-10T08:32:16;6.75;;;5.82;;
64986;SDS011;67903;52.108;9.358;2023-06-10T08:35:02;8.98;;;5.43;;
64986;SDS011;67903;52.108;9.358;2023-06-10T08:37:49;6.68;;;5.13;;
64986;SDS011;67903;52.108;9.358;2023-06-10T08:40:35;6.78;;;4.88;;
64986;SDS011;67903;52.108;9.358;2023-06-10T08:43:43;6.20;;;5.15;;
64986;SDS011;67903;52.108;9.358;2023-06-10T08:46:29;8.07;;;4.72;;
64986;SDS011;67903;52.108;9.358;2023-06-10T08:49:18;6.80;;;4.90;;
64986;SDS011;67903;52.108;9.358;2023-06-10T08:52:06;7.97;;;4.72;;
64986;SDS011;67903;52.108;9.358;2023-06-10T08:54:54;6.70;;;4.43;;
64986;SDS011;67903;52.108;9.358;2023-06-10T08:57:42;6.00;;;4.10;;
64986;SDS011;67903;52.108;9.358;2023-06-10T09:00:30;4.65;;;4.15;;
64986;SDS011;67903;52.108;9.358;2023-06-10T09:03:15;6.85;;;4.20;;
64986;SDS011;67903;52.108;9.358;2023-06-10T09:06:02;6.63;;;4.20;;
64986;SDS011;67903;52.108;9.358;2023-06-10T09:08:50;6.40;;;4.45;;
64986;SDS011;67903;52.108;9.358;2023-06-10T09:11:36;7.80;;;4.20;;
64986;SDS011;67903;52.108;9.358;2023-06-10T09:14:23;5.22;;;4.10;;
64986;SDS011;67903;52.108;9.358;2023-06-10T09:17:09;5.60;;;3.72;;
64986;SDS011;67903;52.108;9.358;2023-06-10T09:19:55;5.85;;;4.05;;
64986;SDS011;67903;52.108;9.358;2023-06-10T09:22:42;4.85;;;4.03;;
64986;SDS011;67903;52.108;9.358;2023-06-10T09:25:35;5.68;;;3.90;;
64986;SDS011;67903;52.108;9.358;2023-06-10T09:28:21;4.93;;;4.05;;
64986;SDS011;67903;52.108;9.358;2023-06-10T09:31:07;6.22;;;4.25;;
64986;SDS011;67903;52.108;9.358;2023-06-10T09:33:54;5.55;;;4.30;;
64986;SDS011;67903;52.108;9.358;2023-06-10T09:36:40;6.25;;;4.10;;
64986;SDS011;67903;52.108;9.358;2023-06-10T09:39:26;5.35;;;3.72;;
64986;SDS011;67903;52.108;9.358;2023-06-10T09:42:15;5.35;;;4.10;;
64986;SDS011;67903;52.108;9.358;2023-06-10T09:45:04;7.03;;;4.20;;
64986;SDS011;67903;52.108;9.358;2023-06-10T09:47:53;6.55;;;4.55;;
64986;SDS011;67903;52.108;9.358;2023-06-10T09:50:44;5.60;;;4.13;;
64986;SDS011;67903;52.108;9.358;2023-06-10T09:53:33;5.32;;;3.95;;
64986;SDS011;67903;52.108;9.358;2023-06-10T09:56:19;5.15;;;4.30;;
64986;SDS011;67903;52.108;9.358;2023-06-10T09:59:06;4.88;;;4.32;;
64986;SDS011;67903;52.108;9.358;2023-06-10T10:01:54;4.72;;;4.07;;
64986;SDS011;67903;52.108;9.358;2023-06-10T10:04:41;6.55;;;4.25;;
64986;SDS011;67903;52.108;9.358;2023-06-10T10:07:27;5.55;;;4.15;;
64986;SDS011;67903;52.108;9.358;2023-06-10T10:10:13;4.28;;;3.70;;
64986;SDS011;67903;52.108;9.358;2023-06-10T10:12:59;5.30;;;4.03;;
64986;SDS011;67903;52.108;9.358;2023-06-10T10:15:46;6.95;;;4.18;;
64986;SDS011;67903;52.108;9.358;2023-06-10T10:18:33;6.88;;;4.70;;
64986;SDS011;67903;52.108;9.358;2023-06-10T10:21:22;5.25;;;4.03;;
64986;SDS011;67903;52.108;9.358;2023-06-10T10:24:10;6.13;;;3.97;;
64986;SDS011;67903;52.108;9.358;2023-06-10T10:26:58;5.78;;;3.60;;
64986;SDS011;67903;52.108;9.358;2023-06-10T10:29:48;5.88;;;4.20;;
64986;SDS011;67903;52.108;9.358;2023-06-10T10:32:43;4.35;;;3.90;;
64986;SDS011;67903;52.108;9.358;2023-06-10T10:35:34;5.90;;;4.20;;
64986;SDS011;67903;52.108;9.358;2023-06-10T10:38:20;4.72;;;3.83;;
64986;SDS011;67903;52.108;9.358;2023-06-10T10:41:06;4.90;;;3.60;;
64986;SDS011;67903;52.108;9.358;2023-06-10T10:43:52;5.05;;;3.63;;
64986;SDS011;67903;52.108;9.358;2023-06-10T10:46:57;6.00;;;4.18;;
64986;SDS011;67903;52.108;9.358;2023-06-10T10:49:48;4.63;;;4.15;;
64986;SDS011;67903;52.108;9.358;2023-06-10T10:52:46;5.30;;;4.32;;
64986;SDS011;67903;52.108;9.358;2023-06-10T10:55:32;6.20;;;4.47;;
64986;SDS011;67903;52.108;9.358;2023-06-10T10:58:23;4.68;;;4.18;;
64986;SDS011;67903;52.108;9.358;2023-06-10T11:01:10;6.15;;;4.50;;
64986;SDS011;67903;52.108;9.358;2023-06-10T11:03:57;5.65;;;4.10;;
64986;SDS011;67903;52.108;9.358;2023-06-10T11:06:51;4.80;;;3.95;;
64986;SDS011;67903;52.108;9.358;2023-06-10T11:09:38;6.35;;;4.80;;
64986;SDS011;67903;52.108;9.358;2023-06-10T11:15:31;8.95;;;4.85;;
64986;SDS011;67903;52.108;9.358;2023-06-10T11:18:21;7.05;;;5.13;;
64986;SDS011;67903;52.108;9.358;2023-06-10T11:21:08;6.13;;;4.80;;
64986;SDS011;67903;52.108;9.358;2023-06-10T11:23:57;7.82;;;5.20;;
64986;SDS011;67903;52.108;9.358;2023-06-10T11:26:44;7.57;;;4.53;;
64986;SDS011;67903;52.108;9.358;2023-06-10T11:29:29;8.32;;;5.20;;
64986;SDS011;67903;52.108;9.358;2023-06-10T11:32:16;5.60;;;4.85;;
64986;SDS011;67903;52.108;9.358;2023-06-10T11:35:03;7.00;;;5.00;;
64986;SDS011;67903;52.108;9.358;2023-06-10T11:37:50;5.90;;;5.10;;
64986;SDS011;67903;52.108;9.358;2023-06-10T11:40:39;6.57;;;5.32;;
64986;SDS011;67903;52.108;9.358;2023-06-10T11:43:25;10.18;;;6.95;;
64986;SDS011;67903;52.108;9.358;2023-06-10T11:46:11;8.88;;;5.30;;
64986;SDS011;67903;52.108;9.358;2023-06-10T11:48:58;6.68;;;5.28;;
64986;SDS011;67903;52.108;9.358;2023-06-10T11:51:45;9.70;;;5.80;;
64986;SDS011;67903;52.108;9.358;2023-06-10T11:54:35;6.57;;;5.35;;
64986;SDS011;67903;52.108;9.358;2023-06-10T11:57:21;6.40;;;5.18;;
64986;SDS011;67903;52.108;9.358;2023-06-10T12:00:06;7.50;;;4.95;;
64986;SDS011;67903;52.108;9.358;2023-06-10T12:02:59;7.88;;;5.68;;
64986;SDS011;67903;52.108;9.358;2023-06-10T12:08:43;6.85;;;5.40;;
64986;SDS011;67903;52.108;9.358;2023-06-10T12:11:29;6.03;;;5.45;;
64986;SDS011;67903;52.108;9.358;2023-06-10T12:14:15;6.00;;;5.50;;
64986;SDS011;67903;52.108;9.358;2023-06-10T12:17:04;6.82;;;5.70;;
64986;SDS011;67903;52.108;9.358;2023-06-10T12:19:50;7.45;;;5.90;;
64986;SDS011;67903;52.108;9.358;2023-06-10T12:22:37;7.65;;;5.90;;
64986;SDS011;67903;52.108;9.358;2023-06-10T12:25:29;7.93;;;6.05;;
64986;SDS011;67903;52.108;9.358;2023-06-10T12:28:16;7.32;;;5.90;;
64986;SDS011;67903;52.108;9.358;2023-06-10T12:31:07;9.13;;;6.15;;
64986;SDS011;67903;52.108;9.358;2023-06-10T12:34:09;6.90;;;5.43;;
64986;SDS011;67903;52.108;9.358;2023-06-10T12:36:55;8.05;;;5.93;;
64986;SDS011;67903;52.108;9.358;2023-06-10T12:39:41;8.48;;;5.78;;
64986;SDS011;67903;52.108;9.358;2023-06-10T12:42:27;7.38;;;6.00;;
64986;SDS011;67903;52.108;9.358;2023-06-10T12:45:14;7.30;;;5.85;;
64986;SDS011;67903;52.108;9.358;2023-06-10T12:48:10;8.18;;;5.88;;
64986;SDS011;67903;52.108;9.358;2023-06-10T12:50:57;7.05;;;6.35;;
64986;SDS011;67903;52.108;9.358;2023-06-10T12:53:44;7.32;;;6.10;;
64986;SDS011;67903;52.108;9.358;2023-06-10T12:56:30;8.30;;;6.07;;
64986;SDS011;67903;52.108;9.358;2023-06-10T12:59:16;7.82;;;6.30;;
64986;SDS011;67903;52.108;9.358;2023-06-10T13:02:02;7.80;;;6.15;;
64986;SDS011;67903;52.108;9.358;2023-06-10T13:04:48;8.27;;;6.15;;
64986;SDS011;67903;52.108;9.358;2023-06-10T13:07:34;7.05;;;6.32;;
64986;SDS011;67903;52.108;9.358;2023-06-10T13:10:20;9.73;;;6.25;;
64986;SDS011;67903;52.108;9.358;2023-06-10T13:13:09;8.13;;;6.32;;
64986;SDS011;67903;52.108;9.358;2023-06-10T13:15:55;7.13;;;5.80;;
64986;SDS011;67903;52.108;9.358;2023-06-10T13:18:41;8.05;;;6.22;;
64986;SDS011;67903;52.108;9.358;2023-06-10T13:21:27;10.25;;;6.40;;
64986;SDS011;67903;52.108;9.358;2023-06-10T13:24:13;6.30;;;5.68;;
64986;SDS011;67903;52.108;9.358;2023-06-10T13:26:59;6.75;;;6.10;;
64986;SDS011;67903;52.108;9.358;2023-06-10T13:29:45;7.18;;;6.28;;
64986;SDS011;67903;52.108;9.358;2023-06-10T13:32:31;6.55;;;5.82;;
64986;SDS011;67903;52.108;9.358;2023-06-10T13:35:17;6.65;;;6.05;;
64986;SDS011;67903;52.108;9.358;2023-06-10T13:38:03;6.88;;;5.78;;
64986;SDS011;67903;52.108;9.358;2023-06-10T13:40:49;7.90;;;6.07;;
64986;SDS011;67903;52.108;9.358;2023-06-10T13:43:36;7.20;;;6.00;;
64986;SDS011;67903;52.108;9.358;2023-06-10T13:46:21;7.70;;;6.22;;
64986;SDS011;67903;52.108;9.358;2023-06-10T13:49:08;6.25;;;5.72;;
64986;SDS011;67903;52.108;9.358;2023-06-10T13:51:54;6.65;;;5.95;;
64986;SDS011;67903;52.108;9.358;2023-06-10T13:54:40;8.35;;;6.32;;
64986;SDS011;67903;52.108;9.358;2023-06-10T13:57:26;9.65;;;6.13;;
64986;SDS011;67903;52.108;9.358;2023-06-10T14:00:12;7.47;;;6.30;;
64986;SDS011;67903;52.108;9.358;2023-06-10T14:02:58;6.70;;;5.97;;
64986;SDS011;67903;52.108;9.358;2023-06-10T14:05:44;8.73;;;6.00;;
64986;SDS011;67903;52.108;9.358;2023-06-10T14:08:30;7.20;;;5.70;;
64986;SDS011;67903;52.108;9.358;2023-06-10T14:11:16;6.10;;;5.50;;
64986;SDS011;67903;52.108;9.358;2023-06-10T14:14:02;6.72;;;5.70;;
64986;SDS011;67903;52.108;9.358;2023-06-10T14:16:48;7.10;;;5.47;;
64986;SDS011;67903;52.108;9.358;2023-06-10T14:19:33;5.75;;;5.22;;
64986;SDS011;67903;52.108;9.358;2023-06-10T14:22:19;6.47;;;5.80;;
64986;SDS011;67903;52.108;9.358;2023-06-10T14:25:05;6.07;;;4.95;;
64986;SDS011;67903;52.108;9.358;2023-06-10T14:27:51;7.95;;;5.22;;
64986;SDS011;67903;52.108;9.358;2023-06-10T14:30:37;6.28;;;5.30;;
64986;SDS011;67903;52.108;9.358;2023-06-10T14:33:23;6.05;;;5.45;;
64986;SDS011;67903;52.108;9.358;2023-06-10T14:36:09;6.07;;;5.50;;
64986;SDS011;67903;52.108;9.358;2023-06-10T14:38:55;5.63;;;5.10;;
64986;SDS011;67903;52.108;9.358;2023-06-10T14:41:42;5.82;;;5.20;;
64986;SDS011;67903;52.108;9.358;2023-06-10T14:44:28;6.40;;;5.80;;
64986;SDS011;67903;52.108;9.358;2023-06-10T14:47:14;6.53;;;5.10;;
64986;SDS011;67903;52.108;9.358;2023-06-10T14:50:00;5.88;;;5.25;;
64986;SDS011;67903;52.108;9.358;2023-06-10T14:52:46;6.40;;;5.80;;
64986;SDS011;67903;52.108;9.358;2023-06-10T14:55:32;5.63;;;4.97;;
64986;SDS011;67903;52.108;9.358;2023-06-10T14:58:18;5.93;;;5.28;;
64986;SDS011;67903;52.108;9.358;2023-06-10T15:01:04;7.90;;;5.10;;
64986;SDS011;67903;52.108;9.358;2023-06-10T15:03:50;7.00;;;5.20;;
64986;SDS011;67903;52.108;9.358;2023-06-10T15:06:36;6.47;;;5.43;;
64986;SDS011;67903;52.108;9.358;2023-06-10T15:09:22;6.22;;;5.28;;
64986;SDS011;67903;52.108;9.358;2023-06-10T15:12:08;5.90;;;5.22;;
64986;SDS011;67903;52.108;9.358;2023-06-10T15:14:54;7.15;;;6.55;;
64986;SDS011;67903;52.108;9.358;2023-06-10T15:17:40;5.95;;;5.43;;
64986;SDS011;67903;52.108;9.358;2023-06-10T15:20:26;5.68;;;5.15;;
64986;SDS011;67903;52.108;9.358;2023-06-10T15:23:11;6.00;;;5.50;;
64986;SDS011;67903;52.108;9.358;2023-06-10T15:25:58;6.00;;;5.40;;
64986;SDS011;67903;52.108;9.358;2023-06-10T15:28:44;5.53;;;5.03;;
64986;SDS011;67903;52.108;9.358;2023-06-10T15:31:30;7.72;;;5.65;;
64986;SDS011;67903;52.108;9.358;2023-06-10T15:34:16;6.05;;;5.40;;
64986;SDS011;67903;52.108;9.358;2023-06-10T15:37:02;7.15;;;4.97;;
64986;SDS011;67903;52.108;9.358;2023-06-10T15:39:48;7.50;;;5.55;;
64986;SDS011;67903;52.108;9.358;2023-06-10T15:42:34;7.13;;;5.38;;
64986;SDS011;67903;52.108;9.358;2023-06-10T15:45:20;7.15;;;5.22;;
64986;SDS011;67903;52.108;9.358;2023-06-10T15:48:06;5.75;;;5.25;;
64986;SDS011;67903;52.108;9.358;2023-06-10T15:50:52;5.65;;;5.25;;
64986;SDS011;67903;52.108;9.358;2023-06-10T15:53:38;5.97;;;5.25;;
64986;SDS011;67903;52.108;9.358;2023-06-10T15:56:24;5.65;;;5.15;;
64986;SDS011;67903;52.108;9.358;2023-06-10T15:59:10;6.05;;;5.55;;
64986;SDS011;67903;52.108;9.358;2023-06-10T16:01:56;6.40;;;5.80;;
64986;SDS011;67903;52.108;9.358;2023-06-10T16:04:42;6.05;;;5.45;;
64986;SDS011;67903;52.108;9.358;2023-06-10T16:07:28;7.18;;;5.30;;
64986;SDS011;67903;52.108;9.358;2023-06-10T16:10:14;7.57;;;5.53;;
64986;SDS011;67903;52.108;9.358;2023-06-10T16:13:00;6.65;;;5.57;;
64986;SDS011;67903;52.108;9.358;2023-06-10T16:15:47;5.97;;;5.47;;
64986;SDS011;67903;52.108;9.358;2023-06-10T16:18:33;6.75;;;5.20;;
64986;SDS011;67903;52.108;9.358;2023-06-10T16:21:19;5.90;;;5.40;;
64986;SDS011;67903;52.108;9.358;2023-06-10T16:24:05;6.22;;;5.63;;
64986;SDS011;67903;52.108;9.358;2023-06-10T16:26:51;7.72;;;5.43;;
64986;SDS011;67903;52.108;9.358;2023-06-10T16:29:37;6.05;;;5.40;;
64986;SDS011;67903;52.108;9.358;2023-06-10T16:32:22;6.70;;;5.82;;
64986;SDS011;67903;52.108;9.358;2023-06-10T16:35:08;6.45;;;5.72;;
64986;SDS011;67903;52.108;9.358;2023-06-10T16:37:55;6.18;;;5.78;;
64986;SDS011;67903;52.108;9.358;2023-06-10T16:40:40;7.90;;;5.30;;
64986;SDS011;67903;52.108;9.358;2023-06-10T16:43:26;6.15;;;5.65;;
64986;SDS011;67903;52.108;9.358;2023-06-10T16:46:12;6.90;;;6.30;;
64986;SDS011;67903;52.108;9.358;2023-06-10T16:48:58;6.57;;;5.95;;
64986;SDS011;67903;52.108;9.358;2023-06-10T16:51:44;7.80;;;5.60;;